sensor_id;sensor_type;location;lat;lon;timestamp;pressure;altitude;pressure_sealevel;temperature;humidity
50282;BME280;36176;51.506;10.272;2023-02-07T00:00:54;101923.50;;;-1.93;80.63
50282;BME280;36176;51.506;10.272;2023-02-07T00:03:21;101931.03;;;-1.99;80.13
50282;BME280;36176;51.506;10.272;2023-02-07T00:05:49;101930.91;;;-2.02;80.33
50282;BME280;36176;51.506;10.272;2023-02-07T00:08:16;101940.31;;;-2.04;80.37
50282;BME280;36176;51.506;10.272;2023-02-07T00:10:43;101940.28;;;-2.06;80.40
50282;BME280;36176;51.506;10.272;2023-02-07T00:13:10;101937.72;;;-2.04;81.01
50282;BME280;36176;51.506;10.272;2023-02-07T00:15:37;101940.28;;;-2.06;80.69
50282;BME280;36176;51.506;10.272;2023-02-07T00:18:04;101942.94;;;-2.04;80.57
50282;BME280;36176;51.506;10.272;2023-02-07T00:20:31;101940.19;;;-2.07;81.06
50282;BME280;36176;51.506;10.272;2023-02-07T00:22:58;101941.97;;;-2.06;81.36
50282;BME280;36176;51.506;10.272;2023-02-07T00:25:25;101942.13;;;-2.03;81.23
50282;BME280;36176;51.506;10.272;2023-02-07T00:27:53;101940.44;;;-2.01;81.25
50282;BME280;36176;51.506;10.272;2023-02-07T00:30:20;101944.84;;;-2.00;81.19
50282;BME280;36176;51.506;10.272;2023-02-07T00:32:47;101937.06;;;-2.00;81.20
50282;BME280;36176;51.506;10.272;2023-02-07T00:35:14;101933.50;;;-2.02;80.95
50282;BME280;36176;51.506;10.272;2023-02-07T00:37:41;101927.41;;;-2.03;81.28
50282;BME280;36176;51.506;10.272;2023-02-07T00:40:08;101932.53;;;-2.04;80.59
50282;BME280;36176;51.506;10.272;2023-02-07T00:42:35;101926.94;;;-2.14;81.84
50282;BME280;36176;51.506;10.272;2023-02-07T00:45:02;101923.94;;;-2.23;81.90
50282;BME280;36176;51.506;10.272;2023-02-07T00:47:29;101921.75;;;-2.33;82.41
50282;BME280;36176;51.506;10.272;2023-02-07T00:49:56;101916.22;;;-2.41;82.70
50282;BME280;36176;51.506;10.272;2023-02-07T00:52:23;101916.69;;;-2.49;83.05
50282;BME280;36176;51.506;10.272;2023-02-07T00:54:50;101908.56;;;-2.57;82.84
50282;BME280;36176;51.506;10.272;2023-02-07T00:57:17;101904.03;;;-2.61;83.04
50282;BME280;36176;51.506;10.272;2023-02-07T00:59:44;101905.63;;;-2.65;82.61
50282;BME280;36176;51.506;10.272;2023-02-07T01:02:11;101898.81;;;-2.63;82.45
50282;BME280;36176;51.506;10.272;2023-02-07T01:04:37;101887.59;;;-2.62;81.84
50282;BME280;36176;51.506;10.272;2023-02-07T01:07:04;101888.22;;;-2.67;81.99
50282;BME280;36176;51.506;10.272;2023-02-07T01:09:32;101883.78;;;-2.70;82.22
50282;BME280;36176;51.506;10.272;2023-02-07T01:11:59;101891.44;;;-2.73;82.90
50282;BME280;36176;51.506;10.272;2023-02-07T01:14:26;101906.72;;;-2.79;83.17
50282;BME280;36176;51.506;10.272;2023-02-07T01:16:53;101895.81;;;-2.90;82.91
50282;BME280;36176;51.506;10.272;2023-02-07T01:19:20;101896.34;;;-2.97;83.44
50282;BME280;36176;51.506;10.272;2023-02-07T01:21:47;101902.97;;;-3.04;84.13
50282;BME280;36176;51.506;10.272;2023-02-07T01:24:15;101906.09;;;-3.11;84.22
50282;BME280;36176;51.506;10.272;2023-02-07T01:26:42;101907.28;;;-3.22;84.12
50282;BME280;36176;51.506;10.272;2023-02-07T01:29:13;101898.41;;;-3.27;84.75
50282;BME280;36176;51.506;10.272;2023-02-07T01:31:41;101897.34;;;-3.31;85.37
50282;BME280;36176;51.506;10.272;2023-02-07T01:34:10;101898.09;;;-3.33;85.59
50282;BME280;36176;51.506;10.272;2023-02-07T01:36:39;101900.56;;;-3.36;85.41
50282;BME280;36176;51.506;10.272;2023-02-07T01:39:06;101893.38;;;-3.42;86.08
50282;BME280;36176;51.506;10.272;2023-02-07T01:41:34;101894.13;;;-3.45;86.67
50282;BME280;36176;51.506;10.272;2023-02-07T01:44:05;101907.00;;;-3.46;86.61
50282;BME280;36176;51.506;10.272;2023-02-07T01:46:34;101895.56;;;-3.50;86.29
50282;BME280;36176;51.506;10.272;2023-02-07T01:49:05;101899.00;;;-3.51;86.64
50282;BME280;36176;51.506;10.272;2023-02-07T01:51:34;101896.50;;;-3.49;87.72
50282;BME280;36176;51.506;10.272;2023-02-07T01:54:05;101891.31;;;-3.49;87.78
50282;BME280;36176;51.506;10.272;2023-02-07T01:56:34;101887.06;;;-3.47;87.20
50282;BME280;36176;51.506;10.272;2023-02-07T01:59:04;101878.25;;;-3.51;87.38
50282;BME280;36176;51.506;10.272;2023-02-07T02:01:32;101878.19;;;-3.52;86.88
50282;BME280;36176;51.506;10.272;2023-02-07T02:03:59;101879.84;;;-3.54;87.07
50282;BME280;36176;51.506;10.272;2023-02-07T02:06:28;101881.47;;;-3.56;87.31
50282;BME280;36176;51.506;10.272;2023-02-07T02:08:58;101881.22;;;-3.61;87.21
50282;BME280;36176;51.506;10.272;2023-02-07T02:11:40;101879.28;;;-3.65;87.69
50282;BME280;36176;51.506;10.272;2023-02-07T02:17:08;101887.72;;;-3.69;87.07
50282;BME280;36176;51.506;10.272;2023-02-07T02:19:46;101873.81;;;-3.71;87.31
50282;BME280;36176;51.506;10.272;2023-02-07T02:36:53;101884.56;;;-3.98;88.18
50282;BME280;36176;51.506;10.272;2023-02-07T02:40:01;101890.44;;;-4.02;88.24
50282;BME280;36176;51.506;10.272;2023-02-07T02:42:48;101894.56;;;-4.06;88.30
50282;BME280;36176;51.506;10.272;2023-02-07T02:45:23;101893.56;;;-4.08;88.42
50282;BME280;36176;51.506;10.272;2023-02-07T02:47:51;101883.22;;;-4.08;88.05
50282;BME280;36176;51.506;10.272;2023-02-07T02:50:25;101882.34;;;-4.08;88.66
50282;BME280;36176;51.506;10.272;2023-02-07T02:52:53;101878.47;;;-4.16;88.36
50282;BME280;36176;51.506;10.272;2023-02-07T02:55:38;101878.16;;;-4.22;88.45
50282;BME280;36176;51.506;10.272;2023-02-07T03:01:23;101874.69;;;-4.39;88.08
50282;BME280;36176;51.506;10.272;2023-02-07T03:04:24;101878.66;;;-4.46;88.67
50282;BME280;36176;51.506;10.272;2023-02-07T03:15:23;101882.72;;;-4.51;89.69
50282;BME280;36176;51.506;10.272;2023-02-07T03:20:30;101883.84;;;-4.62;89.21
50282;BME280;36176;51.506;10.272;2023-02-07T03:23:01;101878.22;;;-4.72;90.81
50282;BME280;36176;51.506;10.272;2023-02-07T03:25:34;101889.25;;;-4.74;90.03
50282;BME280;36176;51.506;10.272;2023-02-07T03:28:03;101889.19;;;-4.76;91.38
50282;BME280;36176;51.506;10.272;2023-02-07T03:30:33;101887.31;;;-4.78;91.16
50282;BME280;36176;51.506;10.272;2023-02-07T03:33:04;101877.63;;;-4.82;90.17
50282;BME280;36176;51.506;10.272;2023-02-07T03:36:01;101875.59;;;-4.88;91.15
50282;BME280;36176;51.506;10.272;2023-02-07T03:38:31;101874.28;;;-4.96;91.06
50282;BME280;36176;51.506;10.272;2023-02-07T03:41:03;101880.81;;;-5.03;91.52
50282;BME280;36176;51.506;10.272;2023-02-07T03:43:33;101878.22;;;-5.03;91.45
50282;BME280;36176;51.506;10.272;2023-02-07T03:46:01;101867.88;;;-5.03;91.40
50282;BME280;36176;51.506;10.272;2023-02-07T03:48:28;101870.41;;;-5.04;91.75
50282;BME280;36176;51.506;10.272;2023-02-07T03:50:55;101874.59;;;-5.06;92.00
50282;BME280;36176;51.506;10.272;2023-02-07T03:53:22;101876.22;;;-5.08;92.49
50282;BME280;36176;51.506;10.272;2023-02-07T03:55:49;101875.16;;;-5.12;92.65
50282;BME280;36176;51.506;10.272;2023-02-07T03:58:17;101875.88;;;-5.15;92.05
50282;BME280;36176;51.506;10.272;2023-02-07T04:00:44;101875.69;;;-5.18;92.53
50282;BME280;36176;51.506;10.272;2023-02-07T04:03:11;101875.53;;;-5.21;92.78
50282;BME280;36176;51.506;10.272;2023-02-07T04:05:38;101860.59;;;-5.26;91.78
50282;BME280;36176;51.506;10.272;2023-02-07T04:08:05;101857.75;;;-5.31;92.02
50282;BME280;36176;51.506;10.272;2023-02-07T04:10:32;101866.94;;;-5.36;92.52
50282;BME280;36176;51.506;10.272;2023-02-07T04:13:00;101863.19;;;-5.41;92.61
50282;BME280;36176;51.506;10.272;2023-02-07T04:15:27;101866.44;;;-5.45;92.44
50282;BME280;36176;51.506;10.272;2023-02-07T04:17:54;101854.88;;;-5.52;92.04
50282;BME280;36176;51.506;10.272;2023-02-07T04:20:21;101846.22;;;-5.52;92.15
50282;BME280;36176;51.506;10.272;2023-02-07T04:22:48;101841.84;;;-5.53;92.15
50282;BME280;36176;51.506;10.272;2023-02-07T04:25:15;101832.50;;;-5.51;93.11
50282;BME280;36176;51.506;10.272;2023-02-07T04:27:43;101831.16;;;-5.45;93.33
50282;BME280;36176;51.506;10.272;2023-02-07T04:30:10;101832.28;;;-5.40;93.63
50282;BME280;36176;51.506;10.272;2023-02-07T04:32:37;101836.47;;;-5.42;92.66
50282;BME280;36176;51.506;10.272;2023-02-07T04:35:05;101837.19;;;-5.44;93.34
50282;BME280;36176;51.506;10.272;2023-02-07T04:37:32;101836.94;;;-5.49;92.73
50282;BME280;36176;51.506;10.272;2023-02-07T04:39:59;101834.19;;;-5.52;92.80
50282;BME280;36176;51.506;10.272;2023-02-07T04:42:26;101837.41;;;-5.56;93.63
50282;BME280;36176;51.506;10.272;2023-02-07T04:44:53;101840.38;;;-5.65;92.95
50282;BME280;36176;51.506;10.272;2023-02-07T04:47:20;101843.47;;;-5.70;93.83
50282;BME280;36176;51.506;10.272;2023-02-07T04:49:47;101838.88;;;-5.76;93.26
50282;BME280;36176;51.506;10.272;2023-02-07T04:52:14;101834.94;;;-5.84;94.80
50282;BME280;36176;51.506;10.272;2023-02-07T04:54:41;101841.91;;;-5.83;94.48
50282;BME280;36176;51.506;10.272;2023-02-07T04:57:08;101851.53;;;-5.81;94.49
50282;BME280;36176;51.506;10.272;2023-02-07T04:59:35;101855.09;;;-5.79;94.46
50282;BME280;36176;51.506;10.272;2023-02-07T05:02:02;101840.31;;;-5.81;93.68
50282;BME280;36176;51.506;10.272;2023-02-07T05:04:29;101840.94;;;-5.85;94.11
50282;BME280;36176;51.506;10.272;2023-02-07T05:06:56;101844.94;;;-5.90;94.36
50282;BME280;36176;51.506;10.272;2023-02-07T05:09:23;101853.47;;;-5.91;93.97
50282;BME280;36176;51.506;10.272;2023-02-07T05:11:50;101856.88;;;-5.92;94.12
50282;BME280;36176;51.506;10.272;2023-02-07T05:14:17;101859.38;;;-5.94;94.02
50282;BME280;36176;51.506;10.272;2023-02-07T05:16:44;101860.75;;;-6.01;92.95
50282;BME280;36176;51.506;10.272;2023-02-07T05:19:11;101858.41;;;-6.11;93.25
50282;BME280;36176;51.506;10.272;2023-02-07T05:21:38;101862.53;;;-6.14;93.68
50282;BME280;36176;51.506;10.272;2023-02-07T05:24:05;101871.16;;;-6.14;93.79
50282;BME280;36176;51.506;10.272;2023-02-07T05:26:32;101865.72;;;-6.18;94.05
50282;BME280;36176;51.506;10.272;2023-02-07T05:28:59;101860.13;;;-6.11;94.82
50282;BME280;36176;51.506;10.272;2023-02-07T05:31:26;101860.47;;;-6.05;93.85
50282;BME280;36176;51.506;10.272;2023-02-07T05:34:13;101873.47;;;-6.04;93.83
50282;BME280;36176;51.506;10.272;2023-02-07T05:36:40;101885.38;;;-6.06;94.07
50282;BME280;36176;51.506;10.272;2023-02-07T05:39:07;101893.75;;;-6.10;93.07
50282;BME280;36176;51.506;10.272;2023-02-07T05:41:34;101895.34;;;-6.12;93.92
50282;BME280;36176;51.506;10.272;2023-02-07T05:44:01;101898.75;;;-6.13;93.24
50282;BME280;36176;51.506;10.272;2023-02-07T05:46:28;101901.22;;;-6.14;94.05
50282;BME280;36176;51.506;10.272;2023-02-07T05:48:55;101906.13;;;-6.19;93.47
50282;BME280;36176;51.506;10.272;2023-02-07T05:51:22;101913.16;;;-6.16;93.76
50282;BME280;36176;51.506;10.272;2023-02-07T05:53:49;101915.19;;;-6.11;94.51
50282;BME280;36176;51.506;10.272;2023-02-07T05:56:15;101919.00;;;-5.89;95.25
50282;BME280;36176;51.506;10.272;2023-02-07T05:58:42;101920.50;;;-5.63;96.26
50282;BME280;36176;51.506;10.272;2023-02-07T06:01:09;101922.41;;;-5.46;95.42
50282;BME280;36176;51.506;10.272;2023-02-07T06:03:36;101920.56;;;-5.32;94.83
50282;BME280;36176;51.506;10.272;2023-02-07T06:06:03;101913.94;;;-5.27;94.16
50282;BME280;36176;51.506;10.272;2023-02-07T06:08:30;101910.69;;;-5.24;94.00
50282;BME280;36176;51.506;10.272;2023-02-07T06:10:57;101905.25;;;-5.29;92.94
50282;BME280;36176;51.506;10.272;2023-02-07T06:13:24;101914.66;;;-5.29;93.10
50282;BME280;36176;51.506;10.272;2023-02-07T06:15:51;101913.72;;;-5.31;93.76
50282;BME280;36176;51.506;10.272;2023-02-07T06:18:18;101918.69;;;-5.35;92.39
50282;BME280;36176;51.506;10.272;2023-02-07T06:20:45;101919.88;;;-5.44;92.14
50282;BME280;36176;51.506;10.272;2023-02-07T06:26:33;101930.25;;;-5.74;92.10
50282;BME280;36176;51.506;10.272;2023-02-07T06:29:00;101934.88;;;-5.83;92.98
50282;BME280;36176;51.506;10.272;2023-02-07T06:31:28;101948.03;;;-5.93;92.36
50282;BME280;36176;51.506;10.272;2023-02-07T06:33:55;101938.25;;;-5.99;92.75
50282;BME280;36176;51.506;10.272;2023-02-07T06:36:23;101940.56;;;-6.04;92.55
50282;BME280;36176;51.506;10.272;2023-02-07T06:38:50;101944.41;;;-6.12;93.08
50282;BME280;36176;51.506;10.272;2023-02-07T06:41:21;101947.69;;;-6.14;92.85
50282;BME280;36176;51.506;10.272;2023-02-07T06:43:48;101943.31;;;-6.15;93.77
50282;BME280;36176;51.506;10.272;2023-02-07T06:46:15;101944.00;;;-6.18;93.72
50282;BME280;36176;51.506;10.272;2023-02-07T06:48:42;101944.50;;;-6.10;94.11
50282;BME280;36176;51.506;10.272;2023-02-07T06:51:08;101947.97;;;-6.10;93.88
50282;BME280;36176;51.506;10.272;2023-02-07T06:53:35;101950.53;;;-6.10;92.84
50282;BME280;36176;51.506;10.272;2023-02-07T06:56:03;101935.66;;;-6.14;92.88
50282;BME280;36176;51.506;10.272;2023-02-07T06:58:30;101931.03;;;-6.19;93.50
50282;BME280;36176;51.506;10.272;2023-02-07T07:00:57;101928.34;;;-6.21;94.06
50282;BME280;36176;51.506;10.272;2023-02-07T07:03:24;101924.00;;;-6.22;93.13
50282;BME280;36176;51.506;10.272;2023-02-07T07:05:58;101917.44;;;-6.17;94.24
50282;BME280;36176;51.506;10.272;2023-02-07T07:08:26;101905.78;;;-6.10;94.07
50282;BME280;36176;51.506;10.272;2023-02-07T07:10:53;101909.69;;;-6.02;94.57
50282;BME280;36176;51.506;10.272;2023-02-07T07:13:21;101904.09;;;-5.95;94.43
50282;BME280;36176;51.506;10.272;2023-02-07T07:15:48;101902.78;;;-5.87;94.67
50282;BME280;36176;51.506;10.272;2023-02-07T07:18:15;101900.69;;;-5.79;94.97
50282;BME280;36176;51.506;10.272;2023-02-07T07:20:42;101899.25;;;-5.74;94.50
50282;BME280;36176;51.506;10.272;2023-02-07T07:23:09;101907.06;;;-5.72;93.86
50282;BME280;36176;51.506;10.272;2023-02-07T07:25:36;101915.09;;;-5.68;93.69
50282;BME280;36176;51.506;10.272;2023-02-07T07:28:04;101920.78;;;-5.59;94.17
50282;BME280;36176;51.506;10.272;2023-02-07T07:30:31;101924.00;;;-5.48;94.64
50282;BME280;36176;51.506;10.272;2023-02-07T07:32:58;101930.38;;;-5.41;93.62
50282;BME280;36176;51.506;10.272;2023-02-07T07:35:25;101935.03;;;-5.36;93.64
50282;BME280;36176;51.506;10.272;2023-02-07T07:37:51;101931.25;;;-5.26;93.46
50282;BME280;36176;51.506;10.272;2023-02-07T07:40:18;101937.72;;;-5.18;93.35
50282;BME280;36176;51.506;10.272;2023-02-07T07:42:45;101940.56;;;-5.13;93.38
50282;BME280;36176;51.506;10.272;2023-02-07T07:45:12;101935.66;;;-5.08;93.03
50282;BME280;36176;51.506;10.272;2023-02-07T07:47:39;101937.00;;;-5.00;92.98
50282;BME280;36176;51.506;10.272;2023-02-07T07:50:06;101944.34;;;-4.92;93.51
50282;BME280;36176;51.506;10.272;2023-02-07T07:52:34;101946.81;;;-4.78;92.61
50282;BME280;36176;51.506;10.272;2023-02-07T07:55:01;101946.59;;;-4.66;92.72
50282;BME280;36176;51.506;10.272;2023-02-07T07:57:28;101952.28;;;-4.57;92.37
50282;BME280;36176;51.506;10.272;2023-02-07T07:59:55;101946.63;;;-4.50;91.56
50282;BME280;36176;51.506;10.272;2023-02-07T08:02:22;101941.66;;;-4.29;92.17
50282;BME280;36176;51.506;10.272;2023-02-07T08:05:00;101938.44;;;-3.74;90.88
50282;BME280;36176;51.506;10.272;2023-02-07T08:07:27;101937.38;;;-3.08;90.05
50282;BME280;36176;51.506;10.272;2023-02-07T08:09:54;101937.53;;;-2.48;87.82
50282;BME280;36176;51.506;10.272;2023-02-07T08:12:20;101937.31;;;-2.14;86.04
50282;BME280;36176;51.506;10.272;2023-02-07T08:14:47;101937.19;;;-1.97;85.23
50282;BME280;36176;51.506;10.272;2023-02-07T08:17:15;101929.56;;;-1.93;84.09
50282;BME280;36176;51.506;10.272;2023-02-07T08:19:41;101928.06;;;-1.87;83.60
50282;BME280;36176;51.506;10.272;2023-02-07T08:22:08;101929.47;;;-1.54;83.54
50282;BME280;36176;51.506;10.272;2023-02-07T08:24:35;101935.22;;;-0.98;82.87
50282;BME280;36176;51.506;10.272;2023-02-07T08:27:03;101941.22;;;-0.54;81.01
50282;BME280;36176;51.506;10.272;2023-02-07T08:29:30;101938.94;;;-0.69;78.62
50282;BME280;36176;51.506;10.272;2023-02-07T08:31:57;101935.84;;;-0.34;78.60
50282;BME280;36176;51.506;10.272;2023-02-07T08:34:31;101936.56;;;0.10;77.08
50282;BME280;36176;51.506;10.272;2023-02-07T08:37:05;101943.75;;;0.68;75.94
50282;BME280;36176;51.506;10.272;2023-02-07T08:39:34;101938.38;;;1.19;72.48
50282;BME280;36176;51.506;10.272;2023-02-07T08:42:02;101939.78;;;1.65;71.27
50282;BME280;36176;51.506;10.272;2023-02-07T08:44:31;101941.78;;;1.76;67.25
50282;BME280;36176;51.506;10.272;2023-02-07T08:46:58;101945.34;;;1.78;69.38
50282;BME280;36176;51.506;10.272;2023-02-07T08:49:25;101941.53;;;1.98;67.63
50282;BME280;36176;51.506;10.272;2023-02-07T08:51:52;101939.78;;;2.64;68.15
50282;BME280;36176;51.506;10.272;2023-02-07T08:54:19;101931.06;;;3.42;65.21
50282;BME280;36176;51.506;10.272;2023-02-07T08:56:46;101940.78;;;3.89;62.09
50282;BME280;36176;51.506;10.272;2023-02-07T08:59:13;101934.25;;;4.14;60.88
50282;BME280;36176;51.506;10.272;2023-02-07T09:01:40;101938.59;;;4.62;60.63
50282;BME280;36176;51.506;10.272;2023-02-07T09:04:07;101931.53;;;5.14;58.81
50282;BME280;36176;51.506;10.272;2023-02-07T09:06:37;101931.53;;;5.14;58.81
50282;BME280;36176;51.506;10.272;2023-02-07T09:09:05;101929.53;;;5.62;54.14
50282;BME280;36176;51.506;10.272;2023-02-07T09:11:32;101929.53;;;5.62;54.14
50282;BME280;36176;51.506;10.272;2023-02-07T09:14:01;101926.84;;;6.30;55.90
50282;BME280;36176;51.506;10.272;2023-02-07T09:16:28;101930.00;;;6.98;55.45
50282;BME280;36176;51.506;10.272;2023-02-07T09:18:56;101936.44;;;7.44;52.21
50282;BME280;36176;51.506;10.272;2023-02-07T09:21:23;101932.09;;;7.59;51.12
50282;BME280;36176;51.506;10.272;2023-02-07T09:23:52;101938.38;;;7.85;51.23
50282;BME280;36176;51.506;10.272;2023-02-07T09:26:21;101933.09;;;7.88;49.43
50282;BME280;36176;51.506;10.272;2023-02-07T09:28:48;101929.59;;;7.99;49.04
50282;BME280;36176;51.506;10.272;2023-02-07T09:31:15;101926.97;;;8.02;46.54
50282;BME280;36176;51.506;10.272;2023-02-07T09:33:42;101934.81;;;7.73;46.10
50282;BME280;36176;51.506;10.272;2023-02-07T09:38:46;101932.97;;;7.55;45.58
50282;BME280;36176;51.506;10.272;2023-02-07T09:41:25;101940.88;;;7.53;44.78
50282;BME280;36176;51.506;10.272;2023-02-07T09:46:50;101933.16;;;8.05;43.46
50282;BME280;36176;51.506;10.272;2023-02-07T09:49:36;101934.94;;;8.09;46.27
50282;BME280;36176;51.506;10.272;2023-02-07T09:52:08;101931.38;;;8.09;44.75
50282;BME280;36176;51.506;10.272;2023-02-07T09:54:41;101936.66;;;8.09;44.49
50282;BME280;36176;51.506;10.272;2023-02-07T09:57:17;101937.53;;;7.96;43.58
50282;BME280;36176;51.506;10.272;2023-02-07T09:59:53;101934.88;;;7.93;45.99
50282;BME280;36176;51.506;10.272;2023-02-07T10:02:33;101930.53;;;8.21;44.01
50282;BME280;36176;51.506;10.272;2023-02-07T10:05:06;101934.88;;;7.94;44.72
50282;BME280;36176;51.506;10.272;2023-02-07T10:07:39;101935.72;;;7.84;43.93
50282;BME280;36176;51.506;10.272;2023-02-07T10:10:16;101936.59;;;7.87;42.70
50282;BME280;36176;51.506;10.272;2023-02-07T10:18:28;101942.88;;;8.26;43.50
50282;BME280;36176;51.506;10.272;2023-02-07T10:21:12;101934.94;;;8.16;43.47
50282;BME280;36176;51.506;10.272;2023-02-07T10:23:56;101929.53;;;7.66;44.24
50282;BME280;36176;51.506;10.272;2023-02-07T10:26:42;101940.97;;;7.75;43.07
50282;BME280;36176;51.506;10.272;2023-02-07T10:29:32;101932.00;;;7.39;43.12
50282;BME280;36176;51.506;10.272;2023-02-07T10:32:13;101936.19;;;7.03;43.99
50282;BME280;36176;51.506;10.272;2023-02-07T10:34:44;101937.81;;;6.81;43.78
50282;BME280;36176;51.506;10.272;2023-02-07T10:37:23;101938.63;;;6.74;46.51
50282;BME280;36176;51.506;10.272;2023-02-07T10:40:01;101932.50;;;6.79;45.29
50282;BME280;36176;51.506;10.272;2023-02-07T10:42:33;101924.38;;;6.53;45.40
50282;BME280;36176;51.506;10.272;2023-02-07T10:45:03;101928.81;;;6.57;47.20
50282;BME280;36176;51.506;10.272;2023-02-07T10:47:38;101934.41;;;6.99;46.14
50282;BME280;36176;51.506;10.272;2023-02-07T10:50:13;101926.53;;;7.05;45.73
50282;BME280;36176;51.506;10.272;2023-02-07T10:52:55;101929.06;;;6.91;46.11
50282;BME280;36176;51.506;10.272;2023-02-07T10:55:43;101921.19;;;6.90;47.98
50282;BME280;36176;51.506;10.272;2023-02-07T10:58:14;101923.94;;;7.10;46.91
50282;BME280;36176;51.506;10.272;2023-02-07T11:00:53;101923.53;;;6.54;47.49
50282;BME280;36176;51.506;10.272;2023-02-07T11:03:22;101915.53;;;6.42;48.06
50282;BME280;36176;51.506;10.272;2023-02-07T11:05:51;101909.03;;;6.08;48.49
50282;BME280;36176;51.506;10.272;2023-02-07T11:08:27;101916.66;;;5.83;50.41
50282;BME280;36176;51.506;10.272;2023-02-07T11:10:57;101911.91;;;5.54;48.78
50282;BME280;36176;51.506;10.272;2023-02-07T11:13:27;101911.13;;;4.96;49.04
50282;BME280;36176;51.506;10.272;2023-02-07T11:15:58;101903.16;;;4.90;50.38
50282;BME280;36176;51.506;10.272;2023-02-07T11:18:42;101900.97;;;5.21;51.20
50282;BME280;36176;51.506;10.272;2023-02-07T11:21:22;101897.06;;;5.60;50.23
50282;BME280;36176;51.506;10.272;2023-02-07T11:23:51;101899.38;;;6.04;49.87
50282;BME280;36176;51.506;10.272;2023-02-07T11:26:22;101893.25;;;6.08;49.22
50282;BME280;36176;51.506;10.272;2023-02-07T11:28:51;101896.81;;;6.13;48.08
50282;BME280;36176;51.506;10.272;2023-02-07T11:31:27;101893.88;;;5.85;48.20
50282;BME280;36176;51.506;10.272;2023-02-07T11:34:36;101886.69;;;5.72;47.85
50282;BME280;36176;51.506;10.272;2023-02-07T11:39:57;101884.09;;;5.73;48.47
50282;BME280;36176;51.506;10.272;2023-02-07T11:42:40;101888.66;;;5.90;48.98
50282;BME280;36176;51.506;10.272;2023-02-07T11:45:13;101881.91;;;6.13;46.63
50282;BME280;36176;51.506;10.272;2023-02-07T11:47:44;101882.78;;;6.14;48.57
50282;BME280;36176;51.506;10.272;2023-02-07T11:50:27;101887.34;;;6.33;48.19
50282;BME280;36176;51.506;10.272;2023-02-07T11:52:59;101875.09;;;6.38;48.52
50282;BME280;36176;51.506;10.272;2023-02-07T11:55:32;101869.91;;;6.48;48.67
50282;BME280;36176;51.506;10.272;2023-02-07T11:58:07;101874.22;;;6.35;49.05
50282;BME280;36176;51.506;10.272;2023-02-07T12:00:36;101865.22;;;6.13;48.29
50282;BME280;36176;51.506;10.272;2023-02-07T12:03:19;101861.03;;;5.49;47.53
50282;BME280;36176;51.506;10.272;2023-02-07T12:05:49;101860.66;;;5.22;50.01
50282;BME280;36176;51.506;10.272;2023-02-07T12:08:24;101859.88;;;5.29;49.48
50282;BME280;36176;51.506;10.272;2023-02-07T12:10:57;101856.56;;;5.42;50.41
50282;BME280;36176;51.506;10.272;2023-02-07T12:13:29;101851.41;;;5.51;49.42
50282;BME280;36176;51.506;10.272;2023-02-07T12:16:02;101852.84;;;5.26;47.65
50282;BME280;36176;51.506;10.272;2023-02-07T12:18:34;101845.47;;;4.96;48.76
50282;BME280;36176;51.506;10.272;2023-02-07T12:28:52;101829.31;;;4.72;49.14
50282;BME280;36176;51.506;10.272;2023-02-07T12:34:44;101831.72;;;5.17;47.57
50282;BME280;36176;51.506;10.272;2023-02-07T12:37:34;101827.88;;;4.92;46.49
50282;BME280;36176;51.506;10.272;2023-02-07T12:40:14;101825.25;;;4.92;47.78
50282;BME280;36176;51.506;10.272;2023-02-07T12:42:53;101828.47;;;5.40;48.99
50282;BME280;36176;51.506;10.272;2023-02-07T12:51:56;101822.72;;;5.73;47.12
50282;BME280;36176;51.506;10.272;2023-02-07T12:54:46;101820.06;;;5.70;46.54
50282;BME280;36176;51.506;10.272;2023-02-07T13:00:15;101809.59;;;5.76;44.93
50282;BME280;36176;51.506;10.272;2023-02-07T13:03:20;101804.72;;;5.33;46.52
50282;BME280;36176;51.506;10.272;2023-02-07T13:11:28;101806.00;;;5.68;46.23
50282;BME280;36176;51.506;10.272;2023-02-07T13:22:40;101801.75;;;5.04;44.30
50282;BME280;36176;51.506;10.272;2023-02-07T13:25:18;101799.84;;;4.91;43.95
50282;BME280;36176;51.506;10.272;2023-02-07T13:27:48;101788.19;;;4.71;44.54
50282;BME280;36176;51.506;10.272;2023-02-07T13:30:19;101797.78;;;4.67;44.68
50282;BME280;36176;51.506;10.272;2023-02-07T13:32:47;101794.16;;;4.60;43.91
50282;BME280;36176;51.506;10.272;2023-02-07T13:35:20;101795.81;;;4.54;43.52
50282;BME280;36176;51.506;10.272;2023-02-07T13:38:11;101798.06;;;4.29;42.16
50282;BME280;36176;51.506;10.272;2023-02-07T13:40:54;101795.94;;;4.07;41.81
50282;BME280;36176;51.506;10.272;2023-02-07T13:49:28;101791.88;;;3.72;41.29
50282;BME280;36176;51.506;10.272;2023-02-07T13:55:19;101794.13;;;3.52;41.51
50282;BME280;36176;51.506;10.272;2023-02-07T13:57:49;101793.81;;;3.35;41.54
50282;BME280;36176;51.506;10.272;2023-02-07T14:03:22;101798.63;;;3.15;42.19
50282;BME280;36176;51.506;10.272;2023-02-07T14:08:38;101801.63;;;2.90;43.47
50282;BME280;36176;51.506;10.272;2023-02-07T14:11:33;101802.41;;;2.87;47.86
50282;BME280;36176;51.506;10.272;2023-02-07T14:14:06;101807.47;;;2.80;50.12
50282;BME280;36176;51.506;10.272;2023-02-07T14:16:45;101803.84;;;2.73;52.17
50282;BME280;36176;51.506;10.272;2023-02-07T14:19:13;101806.41;;;2.70;51.26
50282;BME280;36176;51.506;10.272;2023-02-07T14:21:43;101797.53;;;2.63;52.35
50282;BME280;36176;51.506;10.272;2023-02-07T14:32:23;101801.44;;;2.43;57.15
50282;BME280;36176;51.506;10.272;2023-02-07T14:38:28;101809.00;;;2.30;58.87
50282;BME280;36176;51.506;10.272;2023-02-07T14:40:48;101801.84;;;2.23;58.35
50282;BME280;36176;51.506;10.272;2023-02-07T14:43:54;101810.50;;;2.21;59.54
50282;BME280;36176;51.506;10.272;2023-02-07T14:46:39;101800.75;;;2.15;60.95
50282;BME280;36176;51.506;10.272;2023-02-07T14:49:35;101796.31;;;2.11;60.46
50282;BME280;36176;51.506;10.272;2023-02-07T14:52:09;101792.66;;;2.04;60.14